Camp Pendleton MCAS (Munn Field) Airport
KNFG : rendu visible

Aérodrome :











RETROUVEZ-NOUS SUR...

 
LOGIN :

S'inscrire | Disclaimer

   EN    FR    IT 

 









Légende :    VFR   VFR Marginal   IFR   IFR Intensif   IFR Très Intensif
Visi : 
Plafond : 
>= 8 km
>= 3000ft
5 à 8 km
1000 à 3000 ft
1500m à 5 km
500 à 1000 ft
800 à 1500m
200 à 500 ft
< 800m
< 200 ft
Symboles :   Orages  Brouillard  Fortes neiges  Fortes précipitations  Vent > 20 kt






- Altitude de l'aérodrome : 78 ft


KNFG - Camp Pendleton MCAS (Munn Field)

DERNIER METAR :
  • 081255Z AUTO 00000KT 10SM SCT042 BKN050 OVC070 11/08 A2998 RMK AO2 RAE1157 SLP151 P0000 T01110083 $

METARs EXPIRÉS :
  • 081155Z AUTO 00000KT 10SM -RA OVC055 11/08 A2997 RMK AO2 RAB29 SLP148 P0001 60003 70021 T01110083 10122 20111 55010 $
  • 081055Z AUTO 00000KT 10SM BKN055 OVC070 11/08 A2996 RMK AO2 RAE05 SLP144 P0000 T01110083 $
  • 080955Z AUTO 00000KT 10SM -RA SCT060 BKN075 OVC085 11/08 A2999 RMK AO2 RAB18 SLP154 P0000 T01110083 $

TAF TAF KNFG
Valide du 08 à 09h jusqu'au 09 à 09h UTC


0809/0909 VRB06KT 4800 -SHRA BR BKN010 OVC025 QNH2995INS
BECMG 0818/0820 24010KT 9999 SCT020 BKN035 QNH3002INS T08/0814Z T16/0821Z



MET'MAP, la Météo Aéronautique d'un coup d'oeil ! - Copyright ORBIFLY Décembre 2007 - Disclaimer

ORBIFLY MET'MAP TEAM :

Programmation & Développement : Alexandra Zaïnal
Sur une idée originale de : Baudouin d'Aumeries
Assistance à la programmation : Marc-Olivier Méhu
Soutien technique & logistique : Manuel Goepfert

Contact : metmap@orbifly.com




SOURCES & CREDITS :

   NOAA       Earth
Advisory